createdAt,value
2022-09-09T00:00:55.713Z,15.77
2022-09-09T00:04:00.478Z,15.83
2022-09-09T00:07:06.882Z,15.85
2022-09-09T00:10:17.940Z,15.87
2022-09-09T00:13:26.248Z,15.96
2022-09-09T00:16:42.774Z,15.88
2022-09-09T00:19:57.238Z,15.71
2022-09-09T00:23:12.702Z,15.67
2022-09-09T00:26:32.841Z,15.71
2022-09-09T00:29:56.355Z,15.60
2022-09-09T00:33:14.086Z,15.70
2022-09-09T00:36:41.688Z,15.73
2022-09-09T00:40:08.437Z,15.76
2022-09-09T00:43:22.795Z,15.74
2022-09-09T00:46:55.787Z,15.75
2022-09-09T00:50:34.019Z,15.82
2022-09-09T00:54:07.448Z,15.81
2022-09-09T00:57:31.253Z,15.78
2022-09-09T01:00:43.299Z,15.68
2022-09-09T01:04:11.109Z,15.59
2022-09-09T01:07:20.495Z,15.48
2022-09-09T01:10:54.417Z,15.38
2022-09-09T01:14:32.857Z,15.32
2022-09-09T01:18:02.687Z,15.30
2022-09-09T01:21:36.503Z,15.36
2022-09-09T01:25:07.436Z,15.30
2022-09-09T01:28:29.869Z,15.36
2022-09-09T01:31:59.045Z,15.42
2022-09-09T01:35:22.126Z,15.43
2022-09-09T01:38:39.733Z,15.40
2022-09-09T01:41:51.838Z,15.26
2022-09-09T01:45:13.457Z,15.16
2022-09-09T01:48:15.688Z,15.20
2022-09-09T01:51:26.844Z,15.17
2022-09-09T01:54:37.689Z,15.21
2022-09-09T01:58:38.584Z,15.13
2022-09-09T02:02:39.097Z,15.06
2022-09-09T02:06:06.743Z,14.95
2022-09-09T02:09:18.189Z,14.94
2022-09-09T02:12:22.279Z,14.97
2022-09-09T02:15:59.613Z,15.03
2022-09-09T02:19:08.670Z,15.10
2022-09-09T02:22:27.542Z,15.00
2022-09-09T02:25:33.010Z,14.90
2022-09-09T02:28:44.902Z,14.91
2022-09-09T02:31:50.199Z,14.97
2022-09-09T02:35:05.629Z,14.99
2022-09-09T02:38:11.959Z,15.00
2022-09-09T02:41:15.936Z,15.08
2022-09-09T02:44:19.514Z,15.03
2022-09-09T02:47:31.306Z,14.96
2022-09-09T02:50:52.684Z,15.01
2022-09-09T02:54:00.408Z,15.04
2022-09-09T02:57:15.464Z,15.01
2022-09-09T03:00:25.574Z,14.97
2022-09-09T03:03:28.293Z,14.95
2022-09-09T03:06:31.917Z,15.02
2022-09-09T03:09:43.150Z,15.10
2022-09-09T03:12:45.899Z,15.22
2022-09-09T03:15:49.825Z,15.29
2022-09-09T03:18:56.128Z,15.26
2022-09-09T03:21:59.401Z,15.31
2022-09-09T03:25:02.078Z,15.29
2022-09-09T03:28:07.274Z,15.26
2022-09-09T03:31:11.705Z,15.19
2022-09-09T03:34:20.433Z,15.16
2022-09-09T03:37:23.888Z,15.07
2022-09-09T03:40:27.324Z,15.12
2022-09-09T03:43:30.838Z,15.12
2022-09-09T03:46:36.803Z,15.14
2022-09-09T03:50:36.804Z,15.18
2022-09-09T03:54:01.187Z,15.16
2022-09-09T04:06:32.977Z,15.14
2022-09-09T04:10:14.336Z,15.16
2022-09-09T04:13:41.490Z,15.12
2022-09-09T04:17:11.403Z,15.11
2022-09-09T04:20:56.123Z,15.09
2022-09-09T04:24:01.326Z,15.15
2022-09-09T04:27:03.678Z,15.09
2022-09-09T04:30:20.390Z,14.94
2022-09-09T04:34:29.983Z,14.93
2022-09-09T04:41:59.560Z,15.01
2022-09-09T04:48:47.175Z,15.22
2022-09-09T04:52:15.392Z,15.34
2022-09-09T05:00:22.032Z,15.52
2022-09-09T05:03:26.381Z,15.63
2022-09-09T05:06:35.714Z,15.58
2022-09-09T05:09:44.415Z,15.56
2022-09-09T05:13:05.937Z,15.79
2022-09-09T05:16:08.049Z,16.09
2022-09-09T05:19:10.201Z,16.26
2022-09-09T05:22:24.282Z,16.53
2022-09-09T05:25:28.763Z,16.79
2022-09-09T05:28:32.272Z,17.00
2022-09-09T05:31:35.117Z,17.00
2022-09-09T05:34:40.571Z,17.06
2022-09-09T05:37:42.750Z,16.70
2022-09-09T05:40:49.287Z,16.68
2022-09-09T05:43:51.760Z,16.74
2022-09-09T05:46:53.899Z,16.65
2022-09-09T05:49:56.482Z,16.61
2022-09-09T05:52:58.915Z,16.68
2022-09-09T05:56:11.292Z,16.73
2022-09-09T05:59:13.659Z,16.71
2022-09-09T06:02:15.685Z,16.77
2022-09-09T06:05:17.690Z,16.78
2022-09-09T06:08:19.742Z,16.84
2022-09-09T06:11:24.121Z,17.05
2022-09-09T06:14:28.407Z,17.09
2022-09-09T06:17:50.778Z,17.15
2022-09-09T06:21:12.488Z,17.12
2022-09-09T06:24:25.805Z,17.16
2022-09-09T06:27:31.873Z,17.08
2022-09-09T06:30:36.242Z,16.99
2022-09-09T06:33:42.292Z,17.00
2022-09-09T06:36:45.451Z,17.12
2022-09-09T06:39:47.951Z,17.31
2022-09-09T06:42:50.101Z,17.17
2022-09-09T06:46:23.253Z,17.54
2022-09-09T06:49:26.741Z,17.59
2022-09-09T06:52:29.567Z,17.70
2022-09-09T06:55:32.458Z,17.94
2022-09-09T06:58:35.700Z,18.14
2022-09-09T07:01:43.268Z,18.21
2022-09-09T07:04:48.085Z,18.35
2022-09-09T07:07:50.475Z,18.62
2022-09-09T07:10:55.155Z,18.47
2022-09-09T07:13:59.311Z,18.58
2022-09-09T07:17:01.688Z,18.32
2022-09-09T07:20:09.241Z,18.06
2022-09-09T07:23:14.438Z,18.35
2022-09-09T07:26:21.639Z,18.76
2022-09-09T07:29:32.984Z,18.92
2022-09-09T07:33:13.878Z,18.93
2022-09-09T07:36:55.346Z,18.91
2022-09-09T07:40:30.763Z,19.20
2022-09-09T07:43:58.052Z,19.45
2022-09-09T07:47:19.689Z,19.44
2022-09-09T07:50:34.060Z,19.53
2022-09-09T07:54:34.114Z,19.68
2022-09-09T07:58:38.551Z,19.92
2022-09-09T08:01:58.412Z,20.32
2022-09-09T08:05:08.486Z,20.51
2022-09-09T08:08:13.452Z,20.45
2022-09-09T08:11:19.653Z,20.47
2022-09-09T08:14:21.662Z,20.54
2022-09-09T08:17:25.475Z,20.64
2022-09-09T08:20:29.175Z,20.54
2022-09-09T08:23:31.887Z,20.81
2022-09-09T08:26:36.794Z,20.93
2022-09-09T08:29:48.800Z,21.08
2022-09-09T08:32:53.939Z,21.11
2022-09-09T08:39:37.646Z,21.23
2022-09-09T08:43:22.565Z,21.37
2022-09-09T08:47:06.537Z,21.43
2022-09-09T08:50:24.826Z,21.37
2022-09-09T08:53:39.759Z,21.49
2022-09-09T08:56:41.650Z,21.48
2022-09-09T08:59:43.750Z,21.43
2022-09-09T09:03:12.161Z,21.33
2022-09-09T09:06:32.259Z,21.40
2022-09-09T09:09:44.660Z,21.45
2022-09-09T09:12:48.695Z,21.44
2022-09-09T09:16:03.977Z,21.64
2022-09-09T09:19:11.179Z,21.69
2022-09-09T09:22:23.540Z,21.77
2022-09-09T09:25:36.693Z,21.92
2022-09-09T09:28:43.397Z,22.30
2022-09-09T09:31:55.847Z,22.23
2022-09-09T09:34:59.923Z,22.11
2022-09-09T09:41:41.216Z,22.48
2022-09-09T09:44:44.934Z,22.84
2022-09-09T09:48:07.945Z,22.50
2022-09-09T09:51:17.209Z,22.70
2022-09-09T09:54:30.819Z,22.99
2022-09-09T09:57:39.629Z,23.29
2022-09-09T10:00:52.482Z,23.29
2022-09-09T10:04:03.621Z,23.34
2022-09-09T10:07:17.403Z,22.92
2022-09-09T10:10:28.185Z,23.60
2022-09-09T10:13:53.902Z,23.81
2022-09-09T10:17:18.163Z,23.66
2022-09-09T10:20:34.119Z,23.86
2022-09-09T10:23:54.627Z,23.81
2022-09-09T10:27:32.473Z,23.82
2022-09-09T10:30:49.108Z,23.80
2022-09-09T10:33:55.034Z,23.72
2022-09-09T10:36:56.833Z,23.69
2022-09-09T10:40:27.700Z,23.39
2022-09-09T10:44:08.501Z,23.54
2022-09-09T10:47:10.266Z,23.31
2022-09-09T10:50:57.062Z,23.30
2022-09-09T10:54:27.665Z,23.63
2022-09-09T10:57:40.698Z,23.59
2022-09-09T11:00:48.946Z,23.73
2022-09-09T11:03:56.741Z,24.11
2022-09-09T11:06:59.885Z,24.57
2022-09-09T11:10:04.755Z,24.88
2022-09-09T11:13:13.321Z,24.53
2022-09-09T11:16:53.816Z,24.31
2022-09-09T11:19:56.208Z,24.16
2022-09-09T11:22:58.126Z,24.52
2022-09-09T11:26:04.841Z,24.64
2022-09-09T11:29:30.569Z,24.58
2022-09-09T11:33:25.943Z,24.21
2022-09-09T11:36:46.036Z,24.34
2022-09-09T11:40:29.408Z,24.24
2022-09-09T11:43:43.018Z,23.93
2022-09-09T11:46:53.489Z,24.10
2022-09-09T11:49:55.247Z,24.00
2022-09-09T11:53:21.430Z,24.00
2022-09-09T11:56:45.056Z,23.98
2022-09-09T11:59:56.207Z,24.29
2022-09-09T12:02:58.140Z,24.35
2022-09-09T12:06:00.999Z,24.39
2022-09-09T12:09:16.667Z,24.82
2022-09-09T12:12:30.390Z,24.68
2022-09-09T12:15:32.673Z,24.38
2022-09-09T12:18:40.713Z,24.83
2022-09-09T12:22:32.092Z,25.13
2022-09-09T12:25:54.406Z,25.21
2022-09-09T12:29:08.510Z,25.00
2022-09-09T12:32:21.945Z,25.09
2022-09-09T12:35:27.779Z,25.24
2022-09-09T12:38:42.642Z,25.27
2022-09-09T12:41:57.931Z,24.74
2022-09-09T12:45:02.350Z,23.80
2022-09-09T12:48:09.778Z,24.21
2022-09-09T12:51:26.857Z,24.79
2022-09-09T12:54:31.087Z,24.51
2022-09-09T12:57:37.941Z,24.12
2022-09-09T13:00:53.951Z,24.34
2022-09-09T13:03:56.856Z,24.50
2022-09-09T13:07:11.203Z,24.89
2022-09-09T13:10:36.190Z,25.14
2022-09-09T13:13:41.990Z,25.37
2022-09-09T13:16:44.018Z,24.75
2022-09-09T13:19:51.545Z,24.40
2022-09-09T13:22:55.460Z,24.30
2022-09-09T13:26:02.402Z,24.43
2022-09-09T13:29:20.368Z,24.34
2022-09-09T13:32:23.388Z,24.17
2022-09-09T13:35:26.392Z,24.39
2022-09-09T13:38:30.905Z,24.41
2022-09-09T13:41:38.171Z,24.29
2022-09-09T13:44:41.164Z,24.67
2022-09-09T13:47:43.280Z,24.39
2022-09-09T13:50:55.634Z,24.30
2022-09-09T13:53:58.853Z,24.24
2022-09-09T13:57:02.270Z,24.24
2022-09-09T14:00:05.785Z,24.21
2022-09-09T14:03:09.318Z,24.31
2022-09-09T14:06:12.026Z,24.02
2022-09-09T14:09:16.732Z,24.19
2022-09-09T14:12:19.511Z,24.24
2022-09-09T14:15:23.071Z,24.35
2022-09-09T14:18:26.566Z,24.15
2022-09-09T14:21:28.830Z,24.22
2022-09-09T14:24:30.656Z,24.09
2022-09-09T14:27:33.828Z,24.35
2022-09-09T14:30:35.886Z,24.19
2022-09-09T14:33:38.235Z,24.35
2022-09-09T14:36:40.186Z,24.33
2022-09-09T14:39:45.419Z,24.30
2022-09-09T14:42:49.844Z,24.23
2022-09-09T14:45:52.608Z,23.91
2022-09-09T14:51:56.894Z,23.96
2022-09-09T14:54:58.970Z,23.74
2022-09-09T14:58:01.307Z,23.95
2022-09-09T15:01:07.869Z,23.97
2022-09-09T15:04:13.090Z,23.98
2022-09-09T15:07:15.040Z,24.02
2022-09-09T15:10:18.303Z,23.97
2022-09-09T15:13:20.266Z,23.86
2022-09-09T15:16:25.418Z,23.79
2022-09-09T15:19:27.289Z,23.79
2022-09-09T15:22:29.202Z,23.81
2022-09-09T15:25:31.151Z,23.76
2022-09-09T15:28:41.563Z,23.60
2022-09-09T15:31:43.517Z,23.64
2022-09-09T15:34:45.281Z,23.35
2022-09-09T15:37:47.238Z,23.16
2022-09-09T15:40:55.678Z,23.03
2022-09-09T15:43:57.981Z,22.95
2022-09-09T15:47:00.205Z,22.76
2022-09-09T15:50:02.433Z,22.72
2022-09-09T15:53:04.725Z,22.72
2022-09-09T15:56:09.760Z,22.46
2022-09-09T15:59:12.635Z,22.57
2022-09-09T16:02:14.489Z,22.37
2022-09-09T16:05:16.961Z,22.33
2022-09-09T16:08:19.495Z,22.21
2022-09-09T16:11:26.090Z,22.03
2022-09-09T16:14:28.538Z,21.74
2022-09-09T16:17:30.443Z,21.60
2022-09-09T16:20:34.509Z,21.42
2022-09-09T16:23:36.665Z,21.44
2022-09-09T16:26:41.019Z,21.30
2022-09-09T16:29:42.998Z,21.18
2022-09-09T16:32:45.202Z,21.09
2022-09-09T16:35:47.266Z,21.05
2022-09-09T16:38:54.883Z,20.99
2022-09-09T16:41:58.538Z,20.81
2022-09-09T16:45:00.382Z,20.68
2022-09-09T16:48:02.542Z,20.52
2022-09-09T16:51:07.084Z,20.44
2022-09-09T16:54:10.656Z,20.31
2022-09-09T16:57:12.515Z,20.30
2022-09-09T17:00:14.588Z,20.23
2022-09-09T17:03:17.437Z,20.22
2022-09-09T17:06:19.392Z,20.17
2022-09-09T17:09:22.517Z,20.09
2022-09-09T17:12:24.401Z,20.03
2022-09-09T17:15:26.541Z,19.90
2022-09-09T17:18:29.364Z,19.93
2022-09-09T17:21:32.568Z,19.81
2022-09-09T17:24:35.521Z,19.75
2022-09-09T17:27:37.528Z,19.76
2022-09-09T17:30:39.707Z,19.77
2022-09-09T17:33:44.026Z,19.76
2022-09-09T17:36:46.057Z,19.69
2022-09-09T17:39:48.106Z,19.75
2022-09-09T17:42:50.301Z,19.67
2022-09-09T17:45:52.252Z,19.58
2022-09-09T17:48:57.997Z,19.48
2022-09-09T17:51:59.872Z,19.34
2022-09-09T17:55:03.476Z,19.21
2022-09-09T17:58:06.674Z,19.19
2022-09-09T18:01:14.301Z,19.18
2022-09-09T18:04:25.005Z,19.26
2022-09-09T18:07:27.287Z,19.19
2022-09-09T18:10:29.238Z,19.14
2022-09-09T18:13:31.294Z,18.99
2022-09-09T18:16:36.541Z,18.93
2022-09-09T18:19:38.841Z,19.07
2022-09-09T18:22:41.017Z,19.13
2022-09-09T18:25:43.619Z,19.10
2022-09-09T18:28:50.688Z,19.18
2022-09-09T18:31:54.483Z,19.26
2022-09-09T18:34:59.564Z,19.31
2022-09-09T18:38:01.825Z,19.36
2022-09-09T18:41:25.526Z,19.20
2022-09-09T18:44:30.946Z,19.37
2022-09-09T18:47:33.325Z,19.37
2022-09-09T18:50:35.580Z,19.32
2022-09-09T18:53:38.864Z,19.47
2022-09-09T18:56:42.104Z,19.53
2022-09-09T18:59:44.552Z,19.59
2022-09-09T19:02:54.076Z,19.64
2022-09-09T19:06:06.886Z,19.59
2022-09-09T19:09:17.329Z,19.68
2022-09-09T19:12:23.866Z,19.61
2022-09-09T19:15:27.059Z,19.51
2022-09-09T19:18:31.483Z,19.37
2022-09-09T19:21:37.436Z,19.14
2022-09-09T19:24:41.022Z,19.18
2022-09-09T19:27:43.555Z,19.07
2022-09-09T19:30:47.967Z,18.98
2022-09-09T19:33:51.152Z,18.90
2022-09-09T19:36:53.633Z,18.86
2022-09-09T19:39:55.834Z,18.83
2022-09-09T19:43:07.686Z,18.80
2022-09-09T19:46:11.747Z,18.68
2022-09-09T19:49:15.679Z,18.64
2022-09-09T19:52:18.120Z,18.62
2022-09-09T19:55:20.211Z,18.69
2022-09-09T19:58:22.203Z,18.82
2022-09-09T20:01:30.038Z,18.73
2022-09-09T20:04:32.118Z,18.71
2022-09-09T20:07:33.916Z,18.73
2022-09-09T20:10:35.690Z,18.66
2022-09-09T20:13:39.114Z,18.62
2022-09-09T20:16:41.485Z,18.55
2022-09-09T20:19:44.433Z,18.49
2022-09-09T20:22:47.149Z,18.44
2022-09-09T20:25:49.234Z,18.38
2022-09-09T20:28:53.586Z,18.39
2022-09-09T20:31:55.617Z,18.32
2022-09-09T20:34:58.219Z,18.35
2022-09-09T20:38:01.302Z,18.38
2022-09-09T20:41:04.618Z,18.26
2022-09-09T20:44:14.328Z,18.23
2022-09-09T20:47:16.977Z,18.19
2022-09-09T20:50:18.831Z,18.16
2022-09-09T20:53:21.256Z,18.14
2022-09-09T20:56:27.346Z,18.11
2022-09-09T20:59:31.434Z,18.06
2022-09-09T21:02:33.385Z,18.09
2022-09-09T21:05:35.330Z,18.04
2022-09-09T21:08:37.710Z,18.08
2022-09-09T21:11:39.835Z,18.16
2022-09-09T21:14:41.592Z,18.11
2022-09-09T21:17:43.422Z,18.17
2022-09-09T21:20:46.142Z,18.11
2022-09-09T21:23:54.877Z,18.08
2022-09-09T21:26:56.772Z,18.15
2022-09-09T21:29:58.633Z,18.13
2022-09-09T21:33:01.655Z,18.13
2022-09-09T21:36:07.207Z,18.06
2022-09-09T21:39:09.254Z,18.06
2022-09-09T21:42:11.051Z,18.05
2022-09-09T21:45:13.290Z,17.99
2022-09-09T21:48:16.606Z,18.05
2022-09-09T21:51:18.985Z,17.98
2022-09-09T21:54:20.905Z,18.07
2022-09-09T21:57:24.962Z,17.90
2022-09-09T22:00:27.020Z,17.91
2022-09-09T22:03:29.054Z,17.95
2022-09-09T22:06:30.884Z,17.95
2022-09-09T22:09:33.887Z,17.95
2022-09-09T22:12:36.702Z,17.96
2022-09-09T22:15:44.545Z,17.93
2022-09-09T22:18:53.821Z,17.91
2022-09-09T22:21:55.506Z,17.83
2022-09-09T22:24:57.259Z,17.93
2022-09-09T22:27:58.965Z,17.80
2022-09-09T22:31:01.074Z,17.76
2022-09-09T22:34:03.487Z,17.80
2022-09-09T22:37:06.002Z,17.70
2022-09-09T22:40:09.740Z,17.79
2022-09-09T22:43:16.797Z,17.65
2022-09-09T22:46:18.980Z,17.57
2022-09-09T22:49:20.720Z,17.47
2022-09-09T22:52:24.133Z,17.49
2022-09-09T22:55:26.852Z,17.34
2022-09-09T22:58:30.066Z,17.31
2022-09-09T23:01:32.226Z,17.25
2022-09-09T23:04:34.160Z,17.13
2022-09-09T23:07:36.776Z,17.04
2022-09-09T23:10:42.647Z,17.02
2022-09-09T23:13:50.186Z,17.00
2022-09-09T23:16:52.681Z,16.89
2022-09-09T23:19:56.391Z,16.89
2022-09-09T23:22:58.070Z,16.82
2022-09-09T23:26:07.180Z,16.90
2022-09-09T23:29:10.674Z,16.79
2022-09-09T23:32:12.316Z,16.63
2022-09-09T23:35:14.151Z,16.71
2022-09-09T23:38:17.013Z,16.62
2022-09-09T23:41:21.109Z,16.62
2022-09-09T23:44:23.390Z,16.58
2022-09-09T23:47:25.539Z,16.56
2022-09-09T23:50:27.479Z,16.41
2022-09-09T23:53:29.225Z,16.43
2022-09-09T23:56:37.841Z,16.31
2022-09-09T23:59:39.795Z,16.29
